McKeesport, Pennsylvania
Current Conditions -  °F | °C
As of 5:53 PM on Thursday 23 Oct 2014 (Local Time) from KAGC Reporting Station
Clear Clear  
Wind Chill: 58°   Ceiling: Unl
Heat Index: 58°   Visibility: 10mi
Dew Point: 39°   Wind: 14mph
Humidity: 49%   Direction: 320°NW
Pressure: 30.04"   Gusts: 23mph
Location:  40.35°N, 79.86°W
Report Text: KAGC 232153Z 32012G20KT 10SM CLR 14/04 A3004 RMK AO2 SLP178 T01440039
Loading
Personal Weather Stations






























Interactive Weather Map
Tropical Storm Tracking
New forecast layout! Learn more

10-Day Weather Forecast

Advertisements
Track Severe Weather on mobile